Time;durP1;ratioP1;P1;durP2;ratioP2;P2;SDS_P1;SDS_P2;PMS_P1;PMS_P2;Temp;Humidity;BMP_temperature;BMP_pressure;BME280_temperature;BME280_humidity;BME280_pressure;Samples;Min_cycle;Max_cycle;Signal;HPM_P1;HPM_P2
2022/04/21 00:00:52;;;;;;;12.90;8.38;;;6.50;68.90;;;;;;5074559;28;20055;-12
2022/04/21 00:03:18;;;;;;;12.65;8.07;;;6.40;68.20;;;;;;5074208;28;20043;-11
2022/04/21 00:05:44;;;;;;;12.20;7.85;;;6.40;68.10;;;;;;5074451;28;20041;-11
2022/04/21 00:08:11;;;;;;;10.65;6.90;;;6.40;67.60;;;;;;5074209;28;20036;-11
2022/04/21 00:10:37;;;;;;;10.05;6.80;;;6.30;66.80;;;;;;5073831;28;20074;-12
2022/04/21 00:13:03;;;;;;;13.60;7.57;;;6.30;66.70;;;;;;5072798;28;20048;-12
2022/04/21 00:15:29;;;;;;;13.65;8.75;;;6.30;66.90;;;;;;5073983;28;20107;-12
2022/04/21 00:17:57;;;;;;;12.68;7.70;;;6.30;67.10;;;;;;5073937;28;20028;-11
2022/04/21 00:20:23;;;;;;;13.00;7.57;;;6.30;67.30;;;;;;5074791;28;20099;-11
2022/04/21 00:25:34;;;;;;;15.45;9.52;;;6.30;68.70;;;;;;5074430;28;20165;-11
2022/04/21 00:27:59;;;;;;;17.83;10.60;;;6.20;68.60;;;;;;5073952;28;20056;-11
2022/04/21 00:30:25;;;;;;;11.27;7.15;;;6.20;69.30;;;;;;5073487;28;20060;-11
2022/04/21 00:32:52;;;;;;;11.70;6.78;;;6.20;68.40;;;;;;5073576;28;20107;-11
2022/04/21 00:35:18;;;;;;;14.57;9.15;;;6.20;67.50;;;;;;5073943;28;20125;-11
2022/04/21 00:37:49;;;;;;;13.65;8.73;;;6.10;67.80;;;;;;5073503;28;20036;-11
2022/04/21 00:40:17;;;;;;;16.52;10.10;;;6.20;69.10;;;;;;5073461;28;20067;-11
2022/04/21 00:42:44;;;;;;;21.35;11.85;;;6.10;69.20;;;;;;5072287;28;20460;-12
2022/04/21 00:45:12;;;;;;;15.55;9.07;;;6.10;69.60;;;;;;5073705;28;20480;-12
2022/04/21 00:47:42;;;;;;;23.55;12.38;;;6.10;69.60;;;;;;5072194;28;20369;-12
2022/04/21 00:50:13;;;;;;;16.65;10.25;;;6.00;70.10;;;;;;5073737;28;20468;-11
2022/04/21 00:52:40;;;;;;;16.67;10.38;;;6.00;70.80;;;;;;5073278;28;20488;-12
2022/04/21 00:55:08;;;;;;;12.63;8.45;;;6.00;70.30;;;;;;5073316;28;20063;-11
2022/04/21 00:57:34;;;;;;;16.70;9.75;;;5.90;70.20;;;;;;5073554;28;20099;-11
2022/04/21 01:00:03;;;;;;;18.40;10.77;;;5.90;70.70;;;;;;5073087;28;20097;-12
2022/04/21 01:02:49;;;;;;;16.38;9.77;;;5.90;70.80;;;;;;5073300;28;20096;-12
2022/04/21 01:05:18;;;;;;;18.48;9.82;;;5.80;71.30;;;;;;5073759;28;20028;-12
2022/04/21 01:07:44;;;;;;;15.98;9.23;;;5.80;71.70;;;;;;5073057;28;20082;-11
2022/04/21 01:10:11;;;;;;;15.07;6.70;;;5.80;72.00;;;;;;5073154;28;20392;-11
2022/04/21 01:12:39;;;;;;;15.48;9.18;;;5.70;69.80;;;;;;5071414;28;20093;-11
2022/04/21 01:15:06;;;;;;;13.02;8.27;;;5.70;71.10;;;;;;5073149;28;20074;-14
2022/04/21 01:17:34;;;;;;;14.10;6.63;;;5.70;70.30;;;;;;5073415;28;20035;-11
2022/04/21 01:20:01;;;;;;;15.23;8.10;;;5.70;69.80;;;;;;5073673;28;20147;-11
2022/04/21 01:22:28;;;;;;;13.40;8.77;;;5.70;70.60;;;;;;5072855;28;20055;-11
2022/04/21 01:24:55;;;;;;;22.75;12.15;;;5.60;71.50;;;;;;5072976;28;20020;-12
2022/04/21 01:27:27;;;;;;;14.98;9.90;;;5.60;71.90;;;;;;5073021;28;20033;-11
2022/04/21 01:29:53;;;;;;;14.00;8.75;;;5.50;72.00;;;;;;5073333;28;20032;-12
2022/04/21 01:32:19;;;;;;;13.32;8.43;;;5.40;71.40;;;;;;5072975;28;20041;-11
2022/04/21 01:34:45;;;;;;;17.80;11.50;;;5.40;72.10;;;;;;5072876;28;20041;-11
2022/04/21 01:42:40;;;;;;;20.05;10.50;;;5.30;73.50;;;;;;5073496;28;20055;-12
2022/04/21 01:45:07;;;;;;;16.17;10.75;;;5.40;73.20;;;;;;5072826;28;20075;-11
2022/04/21 01:47:34;;;;;;;17.88;10.00;;;5.40;72.00;;;;;;5072764;28;20029;-12
2022/04/21 01:50:00;;;;;;;21.60;11.68;;;5.40;72.00;;;;;;5072723;28;20033;-13
2022/04/21 01:52:26;;;;;;;23.60;14.02;;;5.40;72.20;;;;;;5072699;28;20039;-9
2022/04/21 01:54:53;;;;;;;22.70;14.30;;;5.40;74.00;;;;;;5072707;28;20488;-11
2022/04/21 01:57:19;;;;;;;18.50;11.02;;;5.40;75.00;;;;;;5072710;28;20040;-10
2022/04/21 01:59:46;;;;;;;19.40;12.77;;;5.40;74.80;;;;;;5072998;28;20102;-11
2022/04/21 02:02:12;;;;;;;23.10;15.35;;;5.40;76.10;;;;;;5072650;28;20413;-11
2022/04/21 02:04:38;;;;;;;21.00;13.02;;;5.40;76.40;;;;;;5071373;28;20488;-12
2022/04/21 02:07:04;;;;;;;16.60;10.98;;;5.50;73.90;;;;;;5072578;28;20037;-11
2022/04/21 02:09:30;;;;;;;15.32;10.02;;;5.50;72.80;;;;;;5072505;28;20032;-11
2022/04/21 02:11:56;;;;;;;18.77;10.95;;;5.50;72.70;;;;;;5075121;28;20063;-11
2022/04/21 02:14:22;;;;;;;14.55;9.90;;;5.50;72.40;;;;;;5075910;28;20082;-11
2022/04/21 02:16:48;;;;;;;18.02;11.57;;;5.50;72.20;;;;;;5076809;28;20115;-11
2022/04/21 02:19:14;;;;;;;19.13;11.85;;;5.50;72.50;;;;;;5076605;28;20070;-11
2022/04/21 02:21:40;;;;;;;18.38;11.65;;;5.50;73.40;;;;;;5076187;28;20024;-11
2022/04/21 02:24:07;;;;;;;19.67;13.23;;;5.50;75.10;;;;;;5076055;28;20024;-10
2022/04/21 02:26:33;;;;;;;15.73;9.80;;;5.50;75.10;;;;;;5076231;28;20040;-11
2022/04/21 02:28:59;;;;;;;13.57;9.02;;;5.50;74.40;;;;;;5076369;28;20107;-11
2022/04/21 02:31:25;;;;;;;21.88;13.80;;;5.50;72.90;;;;;;5076019;28;20561;-11
2022/04/21 02:33:51;;;;;;;17.30;11.68;;;5.50;73.50;;;;;;5075915;28;20097;-11
2022/04/21 02:36:17;;;;;;;17.98;10.57;;;5.50;73.00;;;;;;5075786;28;20056;-12
2022/04/21 02:38:43;;;;;;;18.92;12.05;;;5.50;75.20;;;;;;5076232;28;20032;-11
2022/04/21 02:41:09;;;;;;;20.38;12.68;;;5.50;74.70;;;;;;5075821;28;20029;-11
2022/04/21 02:43:34;;;;;;;21.67;12.27;;;5.60;75.30;;;;;;5076918;28;20118;-11
2022/04/21 02:46:02;;;;;;;19.52;11.32;;;5.60;77.00;;;;;;5076083;28;20464;-11
2022/04/21 02:48:29;;;;;;;19.98;12.02;;;5.60;76.30;;;;;;5075603;28;20384;-12
2022/04/21 02:50:55;;;;;;;17.90;11.27;;;5.60;76.40;;;;;;5075581;28;20033;-11
2022/04/21 02:57:19;;;;;;;15.13;9.60;;;5.70;76.10;;;;;;5075788;28;20033;-11
2022/04/21 02:58:52;;;;;;;16.50;10.07;;;5.70;76.80;;;;;;5075932;28;20032;-12
2022/04/21 03:01:18;;;;;;;17.30;11.02;;;5.80;76.10;;;;;;5075466;28;20024;-11
2022/04/21 03:03:44;;;;;;;20.25;12.13;;;5.80;76.20;;;;;;5075764;28;20027;-11
2022/04/21 03:06:12;;;;;;;16.42;10.20;;;5.80;78.00;;;;;;5075401;28;20033;-11
2022/04/21 03:08:38;;;;;;;18.52;11.63;;;5.90;76.60;;;;;;5075047;28;20024;-11
2022/04/21 03:11:05;;;;;;;14.30;8.85;;;5.90;77.10;;;;;;5075303;28;20032;-11
2022/04/21 03:13:31;;;;;;;17.83;11.27;;;5.90;75.20;;;;;;5074089;28;20397;-11
2022/04/21 03:15:57;;;;;;;17.25;10.52;;;5.90;77.10;;;;;;5075430;28;20485;-12
2022/04/21 03:18:22;;;;;;;16.38;9.90;;;5.90;75.90;;;;;;5075271;28;20103;-11
2022/04/21 03:26:17;;;;;;;23.60;12.90;;;5.90;74.60;;;;;;5074931;28;20169;-12
2022/04/21 03:28:44;;;;;;;17.00;9.95;;;5.90;78.00;;;;;;5075390;28;20502;-11
2022/04/21 03:31:10;;;;;;;16.70;9.38;;;5.90;75.20;;;;;;5073667;28;20025;-11
2022/04/21 03:33:36;;;;;;;15.55;9.45;;;5.90;75.60;;;;;;5075126;28;20024;-11
2022/04/21 03:36:03;;;;;;;14.60;8.70;;;5.90;76.30;;;;;;5075063;28;20040;-11
2022/04/21 03:38:29;;;;;;;19.33;10.30;;;5.90;75.90;;;;;;5074080;28;20031;-12
2022/04/21 03:40:56;;;;;;;13.32;8.32;;;5.90;76.60;;;;;;5074746;28;20385;-11
2022/04/21 03:43:23;;;;;;;19.90;12.07;;;5.90;75.40;;;;;;5075107;28;20036;-11
2022/04/21 03:45:49;;;;;;;16.30;9.18;;;5.90;74.80;;;;;;5074865;28;20485;-11
2022/04/21 03:48:16;;;;;;;15.20;9.48;;;5.90;75.90;;;;;;5074662;28;20025;-12
2022/04/21 03:50:43;;;;;;;13.65;7.60;;;5.90;75.50;;;;;;5074495;28;20146;-11
2022/04/21 03:53:09;;;;;;;16.05;9.63;;;5.90;74.90;;;;;;5074603;28;20112;-11
2022/04/21 03:55:35;;;;;;;13.27;8.90;;;5.90;74.70;;;;;;5074772;28;20583;-10
2022/04/21 03:58:01;;;;;;;16.30;9.05;;;5.90;74.60;;;;;;5074666;28;20495;-11
2022/04/21 04:00:27;;;;;;;16.80;10.98;;;5.90;74.70;;;;;;5074073;28;20111;-11
2022/04/21 04:02:54;;;;;;;19.35;11.57;;;5.90;74.50;;;;;;5073814;28;20155;-11
2022/04/21 04:05:20;;;;;;;13.60;8.18;;;5.90;75.10;;;;;;5074222;28;20036;-12
2022/04/21 04:13:15;;;;;;;20.67;11.70;;;5.90;75.00;;;;;;5073991;28;20097;-11
2022/04/21 04:15:41;;;;;;;15.27;9.63;;;6.00;75.10;;;;;;5074350;28;20021;-11
2022/04/21 04:18:07;;;;;;;17.90;10.85;;;6.00;75.10;;;;;;5073954;28;20108;-11
2022/04/21 04:20:33;;;;;;;23.05;13.40;;;6.00;75.30;;;;;;5073945;28;20031;-13
2022/04/21 04:22:59;;;;;;;25.05;13.27;;;6.00;75.00;;;;;;5073844;28;20036;-11
2022/04/21 04:25:25;;;;;;;15.63;9.80;;;6.00;75.40;;;;;;5073808;28;20029;-11
2022/04/21 04:27:51;;;;;;;15.85;8.90;;;6.00;75.70;;;;;;5073784;28;20020;-11
2022/04/21 04:30:16;;;;;;;15.63;9.52;;;6.00;75.60;;;;;;5073542;28;20025;-12
2022/04/21 04:32:42;;;;;;;15.93;9.48;;;6.10;76.40;;;;;;5073601;28;20123;-11
2022/04/21 04:35:09;;;;;;;16.60;9.43;;;6.10;76.10;;;;;;5073275;28;20021;-11
2022/04/21 04:37:35;;;;;;;22.65;9.85;;;6.10;76.40;;;;;;5073610;28;20447;-12
2022/04/21 04:40:01;;;;;;;23.77;13.65;;;6.10;76.30;;;;;;5073486;28;20119;-12
2022/04/21 04:42:28;;;;;;;19.88;12.02;;;6.20;77.50;;;;;;5073571;28;20103;-12
2022/04/21 04:47:39;;;;;;;21.92;12.02;;;6.20;78.10;;;;;;5074001;28;20036;-11
2022/04/21 04:50:07;;;;;;;22.00;12.27;;;6.20;79.60;;;;;;5073783;28;20024;-12
2022/04/21 04:52:34;;;;;;;19.13;10.85;;;6.30;78.30;;;;;;5071878;28;20097;-11
2022/04/21 04:55:00;;;;;;;20.30;9.95;;;6.30;77.60;;;;;;5073590;28;20029;-12
2022/04/21 04:57:26;;;;;;;14.48;9.15;;;6.40;78.10;;;;;;5073958;28;20027;-12
2022/04/21 04:59:52;;;;;;;16.65;9.50;;;6.40;77.80;;;;;;5073627;28;20473;-12
2022/04/21 05:02:20;;;;;;;18.08;11.82;;;6.50;77.40;;;;;;5073659;28;20423;-11
2022/04/21 05:04:47;;;;;;;15.82;9.32;;;6.60;76.90;;;;;;5073508;28;20032;-12
2022/04/21 05:07:14;;;;;;;17.48;10.30;;;6.60;77.50;;;;;;5073521;28;20101;-11
2022/04/21 05:09:40;;;;;;;20.45;11.73;;;6.60;76.10;;;;;;5073065;28;20071;-11
2022/04/21 05:12:07;;;;;;;24.63;12.50;;;6.70;76.10;;;;;;5073024;28;20029;-11
2022/04/21 05:14:34;;;;;;;19.45;12.05;;;6.80;76.30;;;;;;5072595;28;20063;-12
2022/04/21 05:17:00;;;;;;;22.73;12.55;;;6.90;77.00;;;;;;5073494;28;20048;-11
2022/04/21 05:19:26;;;;;;;18.50;12.07;;;6.90;75.80;;;;;;5073388;28;20028;-11
2022/04/21 05:21:53;;;;;;;19.63;11.25;;;7.00;76.00;;;;;;5073288;28;20423;-11
2022/04/21 05:24:19;;;;;;;16.77;10.20;;;7.10;76.20;;;;;;5071529;28;20033;-12
2022/04/21 05:26:46;;;;;;;18.25;9.38;;;7.20;76.50;;;;;;5073313;28;20029;-11
2022/04/21 05:31:59;;;;;;;16.30;10.45;;;7.30;76.70;;;;;;5073314;28;20038;-11
2022/04/21 05:34:26;;;;;;;25.92;13.23;;;7.40;76.20;;;;;;5071461;28;20056;-11
2022/04/21 05:36:53;;;;;;;24.83;13.85;;;7.50;74.90;;;;;;5074043;28;20032;-12
2022/04/21 05:39:20;;;;;;;23.25;13.00;;;7.60;75.20;;;;;;5073058;28;20025;-12
2022/04/21 05:41:47;;;;;;;16.00;9.65;;;7.70;76.10;;;;;;5073425;28;20124;-11
2022/04/21 05:44:14;;;;;;;19.50;12.88;;;7.70;75.20;;;;;;5073655;28;20075;-11
2022/04/21 05:46:40;;;;;;;23.45;12.93;;;7.80;76.80;;;;;;5076840;28;20081;-11
2022/04/21 05:49:06;;;;;;;19.10;12.07;;;7.90;77.00;;;;;;5076839;28;20032;-12
2022/04/21 05:51:32;;;;;;;17.70;10.02;;;8.00;76.30;;;;;;5076767;28;20068;-12
2022/04/21 05:54:01;;;;;;;15.63;9.10;;;8.10;76.70;;;;;;5076566;28;20089;-12
2022/04/21 05:56:28;;;;;;;16.77;9.20;;;8.20;74.50;;;;;;5076514;28;20043;-12
2022/04/21 05:58:54;;;;;;;11.57;7.90;;;8.30;75.20;;;;;;5076954;28;20029;-12
2022/04/21 06:01:20;;;;;;;12.50;7.68;;;8.40;74.50;;;;;;5076589;28;20123;-11
2022/04/21 06:03:46;;;;;;;14.50;9.30;;;8.60;74.10;;;;;;5077191;28;20017;-11
2022/04/21 06:06:12;;;;;;;17.23;9.45;;;8.70;73.10;;;;;;5076957;28;20020;-11
2022/04/21 06:08:39;;;;;;;19.48;10.65;;;8.80;73.60;;;;;;5076136;28;20400;-11
2022/04/21 06:11:05;;;;;;;13.48;9.45;;;8.90;73.90;;;;;;5076464;28;20029;-11
2022/04/21 06:13:31;;;;;;;20.33;11.93;;;9.10;74.80;;;;;;5076103;28;20044;-11
2022/04/21 06:16:00;;;;;;;17.65;10.32;;;9.30;75.90;;;;;;5076331;28;20499;-11
2022/04/21 06:18:26;;;;;;;19.90;12.70;;;9.40;74.80;;;;;;5076063;28;20031;-10
2022/04/21 06:20:53;;;;;;;16.90;10.25;;;9.50;75.50;;;;;;5076543;28;20025;-11
2022/04/21 06:23:21;;;;;;;18.80;10.52;;;9.60;74.20;;;;;;5076195;28;20017;-11
2022/04/21 06:25:47;;;;;;;16.42;10.48;;;9.70;73.70;;;;;;5076105;28;20032;-10
2022/04/21 06:28:15;;;;;;;16.65;10.80;;;9.90;73.70;;;;;;5076540;28;20033;-12
2022/04/21 06:30:42;;;;;;;16.65;10.30;;;10.00;74.50;;;;;;5076045;28;20024;-12
2022/04/21 06:33:08;;;;;;;17.35;10.23;;;10.10;73.70;;;;;;5075928;28;20024;-11
2022/04/21 06:35:33;;;;;;;20.40;11.90;;;10.20;73.60;;;;;;5076241;28;20124;-11
2022/04/21 06:38:00;;;;;;;16.38;10.20;;;10.30;74.00;;;;;;5076463;28;20078;-11
2022/04/21 06:40:26;;;;;;;17.80;10.98;;;10.30;72.80;;;;;;5075677;28;20418;-10
2022/04/21 06:42:52;;;;;;;15.30;10.07;;;10.40;73.10;;;;;;5076143;28;20536;-10
2022/04/21 06:48:02;;;;;;;14.75;9.63;;;10.50;72.70;;;;;;5076110;28;20392;-12
2022/04/21 06:50:36;;;;;;;18.75;11.48;;;10.70;72.40;;;;;;5075412;28;20028;-11
2022/04/21 06:53:04;;;;;;;14.77;10.18;;;10.80;72.40;;;;;;5075808;28;20506;-11
2022/04/21 06:55:31;;;;;;;18.45;11.63;;;10.90;72.00;;;;;;5075550;28;20074;-11
2022/04/21 06:57:57;;;;;;;17.52;11.07;;;11.10;71.80;;;;;;5073522;28;20039;-11
2022/04/21 07:00:26;;;;;;;17.25;11.63;;;11.30;71.50;;;;;;5075675;28;20039;-11
2022/04/21 07:02:57;;;;;;;19.05;11.18;;;11.50;70.50;;;;;;5075798;28;20486;-11
2022/04/21 07:05:25;;;;;;;15.65;11.10;;;11.60;70.00;;;;;;5074173;28;20518;-11
2022/04/21 07:07:51;;;;;;;19.75;11.50;;;11.80;70.10;;;;;;5075781;28;20099;-11
2022/04/21 07:10:19;;;;;;;16.83;10.52;;;12.00;70.10;;;;;;5075046;28;20028;-11
2022/04/21 07:12:46;;;;;;;22.38;12.32;;;12.10;69.20;;;;;;5074927;28;20135;-12
2022/04/21 07:15:13;;;;;;;18.45;9.70;;;12.40;69.20;;;;;;5075536;28;20055;-10
2022/04/21 07:17:40;;;;;;;16.92;11.27;;;12.60;68.70;;;;;;5075511;28;20047;-11
2022/04/21 07:20:08;;;;;;;17.30;10.80;;;12.80;68.80;;;;;;5075141;28;20477;-11
2022/04/21 07:22:34;;;;;;;19.30;10.20;;;12.90;67.40;;;;;;5075192;28;20055;-11
2022/04/21 07:25:03;;;;;;;15.88;11.02;;;13.00;66.90;;;;;;5075218;28;20376;-11
2022/04/21 07:27:29;;;;;;;13.02;9.55;;;13.10;67.10;;;;;;5073848;28;20044;-10
2022/04/21 07:29:56;;;;;;;17.10;10.45;;;13.40;66.90;;;;;;5073747;28;20039;-10
2022/04/21 07:32:22;;;;;;;14.82;9.68;;;13.40;66.20;;;;;;5074622;28;20031;-10
2022/04/21 07:34:48;;;;;;;16.33;10.38;;;13.60;65.60;;;;;;5073947;28;20113;-10
2022/04/21 07:37:14;;;;;;;17.05;10.50;;;13.70;65.90;;;;;;5075438;28;20024;-10
2022/04/21 07:39:42;;;;;;;14.10;10.70;;;14.00;65.00;;;;;;5074692;28;20547;-11
2022/04/21 07:42:09;;;;;;;13.57;9.98;;;14.40;64.10;;;;;;5075030;28;20028;-11
2022/04/21 07:44:37;;;;;;;19.15;10.07;;;14.70;62.60;;;;;;5074776;28;20070;-10
2022/04/21 07:47:04;;;;;;;13.68;9.27;;;14.80;62.40;;;;;;5074620;28;20028;-11
2022/04/21 07:49:46;;;;;;;14.32;8.75;;;15.00;61.20;;;;;;5074780;28;20027;-10
2022/04/21 07:55:23;;;;;;;12.75;9.07;;;15.70;59.60;;;;;;5074754;28;20032;-11
2022/04/21 07:57:51;;;;;;;12.60;8.32;;;15.90;59.10;;;;;;5074408;28;20036;-11
2022/04/21 08:00:18;;;;;;;13.82;7.93;;;16.10;58.20;;;;;;5074334;28;20031;-12
2022/04/21 08:02:46;;;;;;;14.10;8.30;;;16.20;58.50;;;;;;5074288;28;20024;-10
2022/04/21 08:05:14;;;;;;;11.48;8.18;;;16.20;58.20;;;;;;5074500;28;20556;-12
2022/04/21 08:07:41;;;;;;;12.93;8.02;;;16.10;57.20;;;;;;5074196;28;20021;-10
2022/04/21 08:10:09;;;;;;;12.38;7.90;;;16.00;57.20;;;;;;5074229;28;20025;-11
2022/04/21 08:12:44;;;;;;;14.45;8.85;;;16.00;57.60;;;;;;5072314;28;20098;-12
2022/04/21 08:15:12;;;;;;;10.55;7.43;;;16.10;57.10;;;;;;5074116;28;20400;-10
2022/04/21 08:17:39;;;;;;;12.90;8.68;;;16.00;57.40;;;;;;5074360;28;20024;-11
2022/04/21 08:20:10;;;;;;;12.32;7.75;;;16.00;57.40;;;;;;5074321;28;20391;-10
2022/04/21 08:22:37;;;;;;;9.45;6.07;;;16.00;57.80;;;;;;5074037;28;20024;-11
2022/04/21 08:33:18;;;;;;;13.25;7.40;;;15.90;55.60;;;;;;5073744;28;20110;-11
2022/04/21 08:35:46;;;;;;;9.77;6.60;;;16.10;53.80;;;;;;5073947;28;20028;-11
2022/04/21 08:38:13;;;;;;;10.55;6.22;;;16.30;55.50;;;;;;5073538;28;20392;-10
2022/04/21 08:41:01;;;;;;;9.75;6.80;;;16.50;54.30;;;;;;5072280;28;20443;-12
2022/04/21 08:43:28;;;;;;;10.05;6.53;;;16.50;52.00;;;;;;5071922;28;20028;-11
2022/04/21 08:45:55;;;;;;;11.02;6.63;;;16.60;52.00;;;;;;5073827;28;20060;-11
2022/04/21 08:48:25;;;;;;;8.45;6.22;;;16.70;52.80;;;;;;5072083;28;20064;-11
2022/04/21 08:50:52;;;;;;;11.27;6.28;;;16.80;53.20;;;;;;5073404;28;20086;-11
2022/04/21 08:53:24;;;;;;;10.02;6.82;;;16.70;52.00;;;;;;5073455;28;20032;-10
2022/04/21 08:55:51;;;;;;;11.63;7.50;;;16.80;50.30;;;;;;5074006;28;20029;-11
2022/04/21 08:58:18;;;;;;;10.98;7.60;;;16.70;51.60;;;;;;5073147;28;20489;-11
2022/04/21 09:00:44;;;;;;;13.15;6.97;;;16.50;51.80;;;;;;5073303;28;20150;-11
2022/04/21 09:03:12;;;;;;;8.77;6.45;;;16.30;52.50;;;;;;5073319;28;20025;-11
2022/04/21 09:05:39;;;;;;;12.55;7.55;;;16.30;52.80;;;;;;5073559;28;20025;-10
2022/04/21 09:08:05;;;;;;;12.07;7.03;;;16.40;53.50;;;;;;5073648;28;20107;-11
2022/04/21 09:10:34;;;;;;;12.18;7.00;;;16.50;52.10;;;;;;5073278;28;20021;-10
2022/04/21 09:13:02;;;;;;;13.00;6.60;;;16.50;51.90;;;;;;5073083;28;20094;-11
2022/04/21 09:15:31;;;;;;;7.22;5.35;;;16.50;51.60;;;;;;5073799;28;20104;-10
2022/04/21 09:17:59;;;;;;;7.15;4.80;;;16.60;51.30;;;;;;5073086;28;20477;-11
2022/04/21 09:20:33;;;;;;;6.07;4.43;;;16.60;50.10;;;;;;5072432;28;20511;-10
2022/04/21 09:23:02;;;;;;;9.32;4.55;;;16.60;49.50;;;;;;5073125;28;20064;-11
2022/04/21 09:25:30;;;;;;;8.43;5.35;;;16.60;48.80;;;;;;5072942;28;20046;-10
2022/04/21 09:27:57;;;;;;;10.13;5.47;;;16.30;48.80;;;;;;5073286;28;20094;-11
2022/04/21 09:30:25;;;;;;;8.40;5.07;;;16.20;49.90;;;;;;5072915;28;20024;-11
2022/04/21 09:32:51;;;;;;;8.57;4.53;;;16.20;50.00;;;;;;5073485;28;20023;-11
2022/04/21 09:35:18;;;;;;;8.02;4.80;;;16.20;50.70;;;;;;5072921;28;20040;-12
2022/04/21 09:37:52;;;;;;;7.72;4.45;;;16.20;49.70;;;;;;5073197;28;20099;-11
2022/04/21 09:40:23;;;;;;;7.35;4.97;;;16.10;49.10;;;;;;5073052;28;20121;-12
2022/04/21 09:42:58;;;;;;;9.20;4.65;;;15.90;50.00;;;;;;5072830;28;20035;-11
2022/04/21 09:48:17;;;;;;;7.95;4.70;;;15.70;49.70;;;;;;5073195;28;20031;-12
2022/04/21 09:50:49;;;;;;;7.43;4.70;;;15.40;50.50;;;;;;5072965;28;20044;-11
2022/04/21 09:53:19;;;;;;;5.85;4.43;;;15.30;50.90;;;;;;5072936;28;20032;-11
2022/04/21 09:55:49;;;;;;;7.05;4.40;;;15.30;50.90;;;;;;5072756;28;20039;-10
2022/04/21 09:58:15;;;;;;;6.47;4.22;;;15.20;50.50;;;;;;5072771;28;20353;-11
2022/04/21 10:00:42;;;;;;;7.57;3.95;;;15.20;50.40;;;;;;5073014;28;20063;-11
2022/04/21 10:03:09;;;;;;;5.35;3.97;;;14.90;51.40;;;;;;5072698;28;20021;-11
2022/04/21 10:05:37;;;;;;;6.57;3.80;;;14.80;51.50;;;;;;5072636;28;20035;-11
2022/04/21 10:08:06;;;;;;;5.65;3.50;;;14.80;50.90;;;;;;5072640;28;20075;-11
2022/04/21 10:10:33;;;;;;;5.57;3.72;;;14.80;50.40;;;;;;5072961;28;20039;-11
2022/04/21 10:13:01;;;;;;;6.63;4.00;;;14.80;50.50;;;;;;5072439;28;20094;-11
2022/04/21 10:15:29;;;;;;;5.43;3.97;;;14.90;50.40;;;;;;5072585;28;20408;-10
2022/04/21 10:17:56;;;;;;;11.60;4.80;;;14.90;50.40;;;;;;5072523;28;20028;-11
2022/04/21 10:20:29;;;;;;;6.85;4.20;;;14.80;50.30;;;;;;5072298;28;20040;-10
2022/04/21 10:22:57;;;;;;;8.93;4.07;;;14.80;50.60;;;;;;5072570;28;20032;-12
2022/04/21 10:25:38;;;;;;;6.25;4.22;;;14.70;51.40;;;;;;5072332;28;20029;-11
2022/04/21 10:28:38;;;;;;;8.20;4.43;;;14.60;50.80;;;;;;5071221;28;20549;-10
2022/04/21 10:31:29;;;;;;;6.78;4.00;;;14.60;51.00;;;;;;5072418;28;20075;-11
2022/04/21 10:33:57;;;;;;;6.93;3.83;;;14.70;49.70;;;;;;5076282;28;20090;-12
2022/04/21 10:36:35;;;;;;;5.40;3.90;;;14.60;49.40;;;;;;5076072;28;20033;-10
2022/04/21 10:39:25;;;;;;;5.40;3.65;;;14.60;48.40;;;;;;5076458;28;20028;-10
2022/04/21 10:42:15;;;;;;;7.32;4.00;;;14.60;49.00;;;;;;5075944;28;20020;-10
2022/04/21 10:44:52;;;;;;;5.80;3.80;;;14.50;47.60;;;;;;5075774;28;20078;-11
2022/04/21 10:47:30;;;;;;;7.55;3.70;;;14.40;49.00;;;;;;5074611;28;20024;-10
2022/04/21 10:50:14;;;;;;;6.32;3.88;;;14.50;49.70;;;;;;5075960;28;20480;-10
2022/04/21 10:57:55;;;;;;;6.72;3.75;;;14.60;49.30;;;;;;5075737;28;20031;-11
2022/04/21 11:00:29;;;;;;;8.15;4.00;;;14.70;49.00;;;;;;5075357;28;20028;-11
2022/04/21 11:03:08;;;;;;;6.20;3.72;;;14.70;48.80;;;;;;5076050;28;20500;-10
2022/04/21 11:05:38;;;;;;;7.20;4.00;;;14.90;47.50;;;;;;5075643;28;20024;-11
2022/04/21 11:08:11;;;;;;;7.13;4.57;;;14.90;48.10;;;;;;5075534;28;20026;-11
2022/04/21 11:10:36;;;;;;;8.63;4.63;;;14.90;48.00;;;;;;5075116;28;20029;-11
2022/04/21 11:13:04;;;;;;;7.18;4.20;;;14.90;48.20;;;;;;5075171;28;20055;-11
2022/04/21 11:15:34;;;;;;;7.32;4.18;;;14.90;48.00;;;;;;5075698;28;20036;-10
2022/04/21 11:18:05;;;;;;;7.07;4.38;;;14.90;48.40;;;;;;5075520;28;20028;-10
2022/04/21 11:20:31;;;;;;;7.05;4.50;;;14.90;48.70;;;;;;5075040;28;20031;-11
2022/04/21 11:22:57;;;;;;;8.35;4.38;;;14.90;48.80;;;;;;5075222;28;20016;-10
2022/04/21 11:25:25;;;;;;;7.35;4.93;;;14.90;49.30;;;;;;5074957;28;20021;-10
2022/04/21 11:27:51;;;;;;;9.77;5.00;;;14.90;48.00;;;;;;5075400;28;20028;-10
2022/04/21 11:30:18;;;;;;;8.57;4.97;;;15.00;48.20;;;;;;5074975;28;20510;-10
2022/04/21 11:32:54;;;;;;;9.15;5.20;;;15.10;48.80;;;;;;5074801;28;20472;-11
2022/04/21 11:35:22;;;;;;;9.05;4.88;;;15.10;48.60;;;;;;5073718;28;20033;-10
2022/04/21 11:37:51;;;;;;;8.40;5.18;;;15.10;49.30;;;;;;5074847;28;20154;-11
2022/04/21 11:40:39;;;;;;;9.45;5.53;;;15.20;48.90;;;;;;5074838;28;20161;-10
2022/04/21 11:43:15;;;;;;;9.68;6.30;;;15.10;50.10;;;;;;5074811;28;20100;-11
2022/04/21 11:45:44;;;;;;;10.82;5.78;;;15.20;49.70;;;;;;5075005;28;20052;-11
2022/04/21 11:48:14;;;;;;;9.07;5.65;;;15.10;49.40;;;;;;5074764;28;20024;-11
2022/04/21 11:50:46;;;;;;;9.77;5.63;;;15.00;48.90;;;;;;5074527;28;20043;-12
2022/04/21 11:53:15;;;;;;;9.30;5.32;;;15.10;49.80;;;;;;5074508;28;20024;-10
2022/04/21 11:55:42;;;;;;;8.02;5.32;;;15.10;49.60;;;;;;5075038;28;20131;-11
2022/04/21 11:58:08;;;;;;;7.28;4.93;;;15.20;49.60;;;;;;5074759;28;20029;-11
2022/04/21 12:08:51;;;;;;;5.97;4.57;;;16.10;47.90;;;;;;5074755;28;20047;-12
2022/04/21 12:11:19;;;;;;;10.82;4.80;;;16.40;46.20;;;;;;5074127;28;20111;-12
2022/04/21 12:13:47;;;;;;;8.40;4.50;;;16.50;47.00;;;;;;5074162;28;20067;-11
2022/04/21 12:16:44;;;;;;;7.35;4.63;;;16.50;46.80;;;;;;5074201;28;20486;-12
2022/04/21 12:19:19;;;;;;;6.03;4.38;;;16.60;45.70;;;;;;5073989;28;20036;-11
2022/04/21 12:21:56;;;;;;;10.07;4.65;;;16.50;45.70;;;;;;5074258;28;20028;-12
2022/04/21 12:24:31;;;;;;;7.75;4.50;;;16.50;44.90;;;;;;5073686;28;20149;-11
2022/04/21 12:26:58;;;;;;;8.15;4.57;;;16.30;45.40;;;;;;5073926;28;20032;-12
2022/04/21 12:29:24;;;;;;;7.65;4.50;;;16.30;45.30;;;;;;5073811;28;20450;-12
2022/04/21 12:31:53;;;;;;;7.03;4.93;;;16.20;44.90;;;;;;5073762;28;20073;-11
2022/04/21 12:34:27;;;;;;;7.35;4.60;;;16.00;44.80;;;;;;5074332;28;20060;-11
2022/04/21 12:37:01;;;;;;;7.10;4.65;;;15.90;46.60;;;;;;5074071;28;20103;-11
2022/04/21 12:39:29;;;;;;;7.32;4.68;;;15.80;47.40;;;;;;5073841;28;20052;-10
2022/04/21 12:41:56;;;;;;;6.75;4.90;;;15.60;47.90;;;;;;5073578;28;20028;-11
2022/04/21 12:44:25;;;;;;;9.07;4.97;;;15.50;48.40;;;;;;5073652;28;20029;-10
2022/04/21 12:46:57;;;;;;;9.27;5.00;;;15.60;48.20;;;;;;5073499;28;20029;-10
2022/04/21 12:49:44;;;;;;;9.10;5.30;;;15.60;49.00;;;;;;5073512;28;20029;-10
2022/04/21 12:52:10;;;;;;;7.55;4.75;;;15.70;49.30;;;;;;5073496;28;20059;-11
2022/04/21 12:54:36;;;;;;;7.70;5.00;;;15.70;48.60;;;;;;5072681;28;20029;-11
2022/04/21 12:57:02;;;;;;;12.13;6.15;;;15.90;47.60;;;;;;5073394;28;20040;-10
2022/04/21 12:59:28;;;;;;;9.68;5.25;;;15.90;49.30;;;;;;5073338;28;20432;-11
2022/04/21 13:01:54;;;;;;;8.45;5.53;;;16.00;48.30;;;;;;5073618;28;20056;-10
2022/04/21 13:04:20;;;;;;;9.63;5.85;;;16.10;48.60;;;;;;5072999;28;20027;-10
2022/04/21 13:06:46;;;;;;;9.80;6.38;;;16.40;48.30;;;;;;5072013;28;20024;-11
2022/04/21 13:09:12;;;;;;;8.38;5.95;;;16.70;48.40;;;;;;5073422;28;20024;-10
2022/04/21 13:11:38;;;;;;;9.30;5.72;;;17.00;48.10;;;;;;5073517;28;20028;-10
2022/04/21 13:14:04;;;;;;;9.05;5.60;;;17.20;47.10;;;;;;5072954;28;20098;-11
2022/04/21 13:16:31;;;;;;;12.57;6.15;;;17.40;46.30;;;;;;5072039;28;20091;-12
2022/04/21 13:18:57;;;;;;;8.35;6.22;;;17.50;46.10;;;;;;5073136;28;20038;-12
2022/04/21 13:24:08;;;;;;;8.30;6.05;;;17.60;45.90;;;;;;5073346;28;20028;-11
2022/04/21 13:26:34;;;;;;;9.43;5.38;;;17.90;44.20;;;;;;5072811;28;20028;-11
2022/04/21 13:29:00;;;;;;;9.50;5.60;;;17.90;45.00;;;;;;5073109;28;20023;-11
2022/04/21 13:34:10;;;;;;;8.63;5.82;;;18.10;44.00;;;;;;5073111;28;20039;-10
2022/04/21 13:36:40;;;;;;;10.30;5.03;;;18.20;44.30;;;;;;5072734;28;20025;-11
2022/04/21 13:39:06;;;;;;;7.28;5.35;;;18.20;40.80;;;;;;5073141;28;20024;-12
2022/04/21 13:41:32;;;;;;;8.18;5.40;;;18.30;43.00;;;;;;5073220;28;20438;-11
2022/04/21 13:43:58;;;;;;;8.73;5.90;;;18.20;44.10;;;;;;5072927;28;20021;-11
2022/04/21 13:46:24;;;;;;;9.55;5.68;;;18.00;43.50;;;;;;5072909;28;20037;-11
2022/04/21 13:48:51;;;;;;;10.48;6.32;;;17.90;44.20;;;;;;5072838;28;20032;-11